createdAt,value
2023-01-19T00:01:25.515Z,246.87
2023-01-19T00:36:23.142Z,245.17
2023-01-19T00:37:23.082Z,246.41
2023-01-19T00:38:23.023Z,243.27
2023-01-19T00:39:23.036Z,248.21
2023-01-19T00:40:22.904Z,248.98
2023-01-19T00:41:22.840Z,246.43
2023-01-19T00:42:22.801Z,248.95
2023-01-19T00:43:22.726Z,244.89
2023-01-19T00:44:22.663Z,248.26
2023-01-19T00:45:22.625Z,248.17
2023-01-19T00:46:22.557Z,247.57
2023-01-19T00:47:22.498Z,247.96
2023-01-19T00:48:22.447Z,247.15
2023-01-19T00:49:22.376Z,247.83
2023-01-19T00:50:22.317Z,247.24
2023-01-19T00:51:22.264Z,246.50
2023-01-19T00:52:22.220Z,245.62
2023-01-19T00:53:22.158Z,248.67
2023-01-19T00:54:22.110Z,244.99
2023-01-19T00:55:22.045Z,243.70
2023-01-19T00:56:21.994Z,245.94
2023-01-19T00:57:21.932Z,244.61
2023-01-19T00:58:21.932Z,246.81
2023-01-19T00:59:21.820Z,248.74
2023-01-19T01:00:21.793Z,246.93
2023-01-19T01:01:21.795Z,248.93
2023-01-19T01:02:22.834Z,248.99
2023-01-19T01:03:21.551Z,247.26
2023-01-19T01:21:20.116Z,246.96
2023-01-19T01:22:20.046Z,243.73
2023-01-19T01:23:19.970Z,246.29
2023-01-19T01:24:19.997Z,246.05
2023-01-19T01:25:19.869Z,243.02
2023-01-19T01:26:19.795Z,246.14
2023-01-19T01:27:19.747Z,246.71
2023-01-19T01:28:19.705Z,248.08
2023-01-19T01:29:19.637Z,246.91
2023-01-19T01:30:19.582Z,244.80
2023-01-19T01:31:19.552Z,247.68
2023-01-19T01:32:19.465Z,247.81
2023-01-19T01:33:39.935Z,246.38
2023-01-19T01:34:20.332Z,246.46
2023-01-19T01:35:19.290Z,245.81
2023-01-19T01:36:19.173Z,246.91
2023-01-19T01:37:19.092Z,246.17
2023-01-19T01:38:19.020Z,247.40
2023-01-19T01:39:18.935Z,244.51
2023-01-19T01:40:18.846Z,245.52
2023-01-19T01:41:20.580Z,244.81
2023-01-19T01:42:18.746Z,242.93
2023-01-19T01:43:18.608Z,239.65
2023-01-19T01:44:18.508Z,239.95
2023-01-19T01:45:18.426Z,238.25
2023-01-19T01:46:18.434Z,238.97
2023-01-19T01:47:18.268Z,239.22
2023-01-19T01:48:18.193Z,238.62
2023-01-19T01:49:18.116Z,240.32
2023-01-19T01:50:18.538Z,236.51
2023-01-19T01:51:17.939Z,240.34
2023-01-19T01:52:17.856Z,238.87
2023-01-19T01:53:17.777Z,239.47
2023-01-19T01:54:17.718Z,240.91
2023-01-19T01:55:17.622Z,241.15
2023-01-19T01:56:17.539Z,238.99
2023-01-19T01:57:17.523Z,239.77
2023-01-19T01:58:17.436Z,239.43
2023-01-19T01:59:17.296Z,239.87
2023-01-19T02:00:17.215Z,241.07
2023-01-19T02:01:17.249Z,239.85
2023-01-19T02:02:17.092Z,240.05
2023-01-19T02:03:16.977Z,238.73
2023-01-19T02:04:16.881Z,236.78
2023-01-19T02:05:16.813Z,239.27
2023-01-19T02:06:16.717Z,240.69
2023-01-19T02:07:16.638Z,240.55
2023-01-19T02:08:16.561Z,238.42
2023-01-19T02:09:16.470Z,240.23
2023-01-19T02:10:16.389Z,238.05
2023-01-19T02:11:16.306Z,236.18
2023-01-19T02:12:16.234Z,239.62
2023-01-19T02:13:16.157Z,238.04
2023-01-19T02:14:16.068Z,240.70
2023-01-19T02:15:15.995Z,235.38
2023-01-19T02:16:15.971Z,237.10
2023-01-19T02:17:16.545Z,240.44
2023-01-19T02:18:15.754Z,239.45
2023-01-19T02:19:15.658Z,240.47
2023-01-19T02:20:15.581Z,242.71
2023-01-19T02:31:15.636Z,238.42
2023-01-19T03:17:10.753Z,236.03
2023-01-19T03:18:10.666Z,234.04
2023-01-19T03:19:10.575Z,235.57
2023-01-19T03:20:10.509Z,234.35
2023-01-19T03:21:10.412Z,234.80
2023-01-19T03:22:10.357Z,233.79
2023-01-19T03:23:10.243Z,233.74
2023-01-19T03:24:10.158Z,233.47
2023-01-19T03:25:10.077Z,231.63
2023-01-19T03:26:09.990Z,234.55
2023-01-19T03:27:09.914Z,233.82
2023-01-19T03:28:09.816Z,231.76
2023-01-19T03:29:09.746Z,231.73
2023-01-19T03:30:09.654Z,232.92
2023-01-19T03:31:09.674Z,232.05
2023-01-19T03:32:09.476Z,232.74
2023-01-19T03:33:09.419Z,229.43
2023-01-19T03:34:09.333Z,231.63
2023-01-19T03:35:09.267Z,231.27
2023-01-19T03:36:09.235Z,232.91
2023-01-19T03:37:09.173Z,233.23
2023-01-19T03:38:09.116Z,231.52
2023-01-19T03:39:09.056Z,232.34
2023-01-19T03:40:09.013Z,231.69
2023-01-19T03:41:08.948Z,231.89
2023-01-19T03:42:08.904Z,233.12
2023-01-19T03:43:08.844Z,232.92
2023-01-19T03:44:08.804Z,231.67
2023-01-19T03:45:08.735Z,229.10
2023-01-19T03:46:08.699Z,229.17
2023-01-19T03:47:08.596Z,231.15
2023-01-19T03:48:08.559Z,231.94
2023-01-19T03:49:08.495Z,231.50
2023-01-19T03:50:08.468Z,230.50
2023-01-19T03:51:09.160Z,229.83
2023-01-19T03:52:08.367Z,229.64
2023-01-19T03:53:08.307Z,229.61
2023-01-19T03:54:09.085Z,229.09
2023-01-19T03:55:08.228Z,228.26
2023-01-19T03:56:08.179Z,229.70
2023-01-19T03:57:08.116Z,227.18
2023-01-19T03:58:08.065Z,226.92
2023-01-19T03:59:08.062Z,227.55
2023-01-19T04:00:07.961Z,224.20
2023-01-19T04:01:08.003Z,227.83
2023-01-19T04:02:07.945Z,226.74
2023-01-19T04:03:07.889Z,226.85
2023-01-19T04:04:07.808Z,227.29
2023-01-19T04:05:07.794Z,228.86
2023-01-19T04:06:07.768Z,223.98
2023-01-19T04:07:07.695Z,223.59
2023-01-19T04:08:08.588Z,226.79
2023-01-19T04:09:07.634Z,225.64
2023-01-19T04:10:07.572Z,228.88
2023-01-19T04:11:07.535Z,226.00
2023-01-19T04:12:07.563Z,224.82
2023-01-19T04:13:07.447Z,226.74
2023-01-19T04:14:07.419Z,221.70
2023-01-19T04:15:07.379Z,225.78
2023-01-19T04:16:07.442Z,227.94
2023-01-19T04:17:07.278Z,225.78
2023-01-19T04:18:07.257Z,226.37
2023-01-19T04:19:07.193Z,224.83
2023-01-19T04:20:07.164Z,225.32
2023-01-19T04:21:07.150Z,223.57
2023-01-19T04:22:07.093Z,222.41
2023-01-19T04:23:07.040Z,224.36
2023-01-19T04:24:06.980Z,224.79
2023-01-19T04:25:06.958Z,223.57
2023-01-19T04:26:06.969Z,224.22
2023-01-19T04:27:07.592Z,220.87
2023-01-19T04:28:06.806Z,224.82
2023-01-19T04:29:06.726Z,221.66
2023-01-19T04:30:06.671Z,222.35
2023-01-19T04:31:06.676Z,222.14
2023-01-19T04:32:06.703Z,219.19
2023-01-19T04:33:06.537Z,221.65
2023-01-19T04:34:06.508Z,222.88
2023-01-19T04:35:06.457Z,220.23
2023-01-19T04:36:06.406Z,219.79
2023-01-19T04:37:06.346Z,221.58
2023-01-19T04:38:06.301Z,223.64
2023-01-19T04:39:06.271Z,220.30
2023-01-19T04:40:06.251Z,221.60
2023-01-19T04:41:06.211Z,219.92
2023-01-19T04:42:06.178Z,220.48
2023-01-19T04:43:06.117Z,217.99
2023-01-19T04:44:06.057Z,222.89
2023-01-19T04:45:06.013Z,222.41
2023-01-19T04:46:06.024Z,219.62
2023-01-19T04:47:05.922Z,219.10
2023-01-19T04:48:05.882Z,220.25
2023-01-19T04:49:05.826Z,219.36
2023-01-19T04:50:05.768Z,220.16
2023-01-19T04:51:05.717Z,219.56
2023-01-19T04:52:05.647Z,215.32
2023-01-19T04:53:05.587Z,216.85
2023-01-19T04:54:05.518Z,217.49
2023-01-19T05:03:06.093Z,217.41
2023-01-19T06:09:02.306Z,201.16
2023-01-19T06:10:02.248Z,200.53
2023-01-19T06:11:02.219Z,200.51
2023-01-19T06:12:02.164Z,202.22
2023-01-19T06:13:02.535Z,201.24
2023-01-19T06:14:02.083Z,198.73
2023-01-19T06:15:02.025Z,199.33
2023-01-19T06:16:02.005Z,197.20
2023-01-19T06:17:01.928Z,198.91
2023-01-19T06:18:01.849Z,202.01
2023-01-19T06:19:01.782Z,201.73
2023-01-19T06:20:01.717Z,195.91
2023-01-19T06:21:01.660Z,198.49
2023-01-19T06:22:01.608Z,197.59
2023-01-19T06:23:01.956Z,199.63
2023-01-19T06:24:01.546Z,216.89
2023-01-19T06:25:01.466Z,192.82
2023-01-19T06:26:01.355Z,199.95
2023-01-19T06:27:01.283Z,200.88
2023-01-19T06:28:01.216Z,203.50
2023-01-19T06:34:00.949Z,201.98
2023-01-19T06:35:00.921Z,202.68
2023-01-19T06:36:00.887Z,204.03
2023-01-19T06:37:00.862Z,203.63
2023-01-19T06:39:00.784Z,202.47
2023-01-19T06:40:00.743Z,199.85
2023-01-19T06:41:00.690Z,202.10
2023-01-19T06:42:00.639Z,200.03
2023-01-19T06:48:00.280Z,200.64
2023-01-19T07:19:57.706Z,223.16
2023-01-19T07:20:57.597Z,229.85
2023-01-19T07:21:57.510Z,228.17
2023-01-19T07:22:57.456Z,222.32
2023-01-19T07:23:57.403Z,203.33
2023-01-19T07:24:58.338Z,191.13
2023-01-19T07:26:57.316Z,193.65
2023-01-19T07:27:57.228Z,191.50
2023-01-19T07:28:57.219Z,189.62
2023-01-19T07:29:57.708Z,181.79
2023-01-19T07:30:57.236Z,184.68
2023-01-19T07:31:57.028Z,190.44
2023-01-19T07:32:58.548Z,190.64
2023-01-19T07:33:56.834Z,190.10
2023-01-19T07:34:56.751Z,186.76
2023-01-19T07:35:56.629Z,188.79
2023-01-19T07:36:56.545Z,185.83
2023-01-19T07:37:56.600Z,185.42
2023-01-19T07:38:56.416Z,186.23
2023-01-19T07:39:56.285Z,184.26
2023-01-19T07:40:56.148Z,183.61
2023-01-19T07:41:56.026Z,187.39
2023-01-19T07:42:56.003Z,187.43
2023-01-19T07:43:56.169Z,185.68
2023-01-19T07:44:55.717Z,184.18
2023-01-19T07:45:55.632Z,184.91
2023-01-19T07:46:55.505Z,181.03
2023-01-19T07:47:55.405Z,179.96
2023-01-19T07:48:55.303Z,182.07
2023-01-19T07:49:55.198Z,179.77
2023-01-19T07:50:55.155Z,181.78
2023-01-19T07:51:55.085Z,126.16
2023-01-19T07:52:55.063Z,123.39
2023-01-19T07:53:55.038Z,161.03
2023-01-19T07:54:55.041Z,165.98
2023-01-19T07:55:54.995Z,151.19
2023-01-19T07:56:54.986Z,144.49
2023-01-19T07:57:54.920Z,143.70
2023-01-19T07:58:55.627Z,147.33
2023-01-19T07:59:54.829Z,144.49
2023-01-19T08:00:54.867Z,142.06
2023-01-19T08:01:54.772Z,142.72
2023-01-19T08:02:54.564Z,143.83
2023-01-19T08:03:54.464Z,144.35
2023-01-19T08:04:54.436Z,144.69
2023-01-19T08:05:54.298Z,144.18
2023-01-19T08:06:54.196Z,144.05
2023-01-19T08:07:54.285Z,147.71
2023-01-19T08:08:54.176Z,149.94
2023-01-19T08:09:53.929Z,150.06
2023-01-19T08:10:53.830Z,150.16
2023-01-19T08:11:53.738Z,145.99
2023-01-19T08:12:53.666Z,142.77
2023-01-19T08:13:53.594Z,128.14
2023-01-19T08:14:53.584Z,128.14
2023-01-19T08:15:53.605Z,127.29
2023-01-19T08:16:53.412Z,130.10
2023-01-19T08:17:53.332Z,127.60
2023-01-19T08:18:53.237Z,128.47
2023-01-19T08:19:53.671Z,126.63
2023-01-19T08:20:53.055Z,126.66
2023-01-19T08:21:53.021Z,122.62
2023-01-19T08:22:52.919Z,123.98
2023-01-19T08:23:52.862Z,126.70
2023-01-19T08:24:52.917Z,125.95
2023-01-19T08:25:52.667Z,128.51
2023-01-19T08:26:52.562Z,128.38
2023-01-19T08:27:52.557Z,127.33
2023-01-19T08:28:52.439Z,130.09
2023-01-19T08:29:52.388Z,127.43
2023-01-19T08:30:52.507Z,125.47
2023-01-19T08:31:52.430Z,127.21
2023-01-19T08:32:52.288Z,127.41
2023-01-19T08:33:52.240Z,126.39
2023-01-19T08:34:52.189Z,125.06
2023-01-19T08:35:52.146Z,126.28
2023-01-19T08:36:52.100Z,124.86
2023-01-19T08:37:52.074Z,125.84
2023-01-19T08:38:52.030Z,124.82
2023-01-19T08:39:52.051Z,122.56
2023-01-19T08:40:51.935Z,123.99
2023-01-19T08:41:51.889Z,129.13
2023-01-19T08:42:51.850Z,127.31
2023-01-19T08:43:51.805Z,129.63
2023-01-19T08:44:58.161Z,128.26
2023-01-19T08:45:52.645Z,128.62
2023-01-19T08:46:51.535Z,128.86
2023-01-19T08:47:52.177Z,129.19
2023-01-19T08:48:51.323Z,130.49
2023-01-19T08:49:51.218Z,125.26
2023-01-19T08:50:51.100Z,126.94
2023-01-19T08:51:50.987Z,125.84
2023-01-19T08:52:50.873Z,124.19
2023-01-19T08:53:50.852Z,123.22
2023-01-19T08:54:50.678Z,120.59
2023-01-19T08:55:50.567Z,120.58
2023-01-19T08:56:50.476Z,122.19
2023-01-19T08:57:50.354Z,118.06
2023-01-19T08:59:03.515Z,117.54
2023-01-19T08:59:51.147Z,117.75
2023-01-19T09:00:50.068Z,117.75
2023-01-19T09:01:50.062Z,118.15
2023-01-19T09:02:49.874Z,114.50
2023-01-19T09:03:49.719Z,112.13
2023-01-19T09:04:49.632Z,94.97
2023-01-19T09:05:49.508Z,76.75
2023-01-19T09:06:49.427Z,79.98
2023-01-19T09:07:49.304Z,72.35
2023-01-19T09:08:50.194Z,73.42
2023-01-19T09:09:49.210Z,75.22
2023-01-19T09:10:49.009Z,74.09
2023-01-19T09:11:49.047Z,77.04
2023-01-19T09:12:48.812Z,75.64
2023-01-19T09:13:48.769Z,80.80
2023-01-19T09:14:48.626Z,85.02
2023-01-19T09:15:48.559Z,79.21
2023-01-19T09:16:48.406Z,80.36
2023-01-19T09:17:48.311Z,85.81
2023-01-19T09:18:48.216Z,79.11
2023-01-19T09:19:48.136Z,82.93
2023-01-19T09:20:48.057Z,76.81
2023-01-19T09:21:48.000Z,83.52
2023-01-19T09:22:47.932Z,79.65
2023-01-19T09:23:47.871Z,87.46
2023-01-19T09:24:47.808Z,85.67
2023-01-19T09:25:47.758Z,82.93
2023-01-19T09:26:47.722Z,80.68
2023-01-19T09:27:47.663Z,81.14
2023-01-19T09:28:47.640Z,81.20
2023-01-19T09:29:47.502Z,82.73
2023-01-19T09:30:48.153Z,78.16
2023-01-19T09:31:47.335Z,78.72
2023-01-19T09:32:47.707Z,77.07
2023-01-19T09:33:47.107Z,75.96
2023-01-19T09:34:47.093Z,78.25
2023-01-19T09:35:46.950Z,72.19
2023-01-19T09:36:46.805Z,74.66
2023-01-19T09:37:46.716Z,71.83
2023-01-19T09:38:46.607Z,71.56
2023-01-19T09:39:46.572Z,72.90
2023-01-19T09:40:46.435Z,76.52
2023-01-19T09:41:47.180Z,76.72
2023-01-19T09:42:46.302Z,76.72
2023-01-19T09:43:46.710Z,76.30
2023-01-19T09:44:46.136Z,76.83
2023-01-19T09:45:46.084Z,75.22
2023-01-19T09:46:46.693Z,73.67
2023-01-19T09:47:45.988Z,72.23
2023-01-19T09:48:45.996Z,73.75
2023-01-19T09:49:45.918Z,71.65
2023-01-19T09:50:45.857Z,71.46
2023-01-19T09:51:46.631Z,71.47
2023-01-19T09:52:45.793Z,69.23
2023-01-19T09:53:45.735Z,69.77
2023-01-19T09:54:46.270Z,70.91
2023-01-19T09:55:45.669Z,68.59
2023-01-19T09:56:45.626Z,69.87
2023-01-19T09:57:45.659Z,69.86
2023-01-19T09:58:46.209Z,69.09
2023-01-19T10:00:45.563Z,69.58
2023-01-19T10:04:46.212Z,66.63
2023-01-19T10:08:45.749Z,63.43
2023-01-19T10:11:52.744Z,54.16
2023-01-19T10:12:45.755Z,54.37
2023-01-19T10:13:44.647Z,54.51
2023-01-19T10:14:44.555Z,51.16
2023-01-19T10:15:44.440Z,49.33
2023-01-19T10:16:44.337Z,50.85
2023-01-19T10:17:44.211Z,45.49
2023-01-19T10:18:44.161Z,43.99
2023-01-19T10:19:46.481Z,42.17
2023-01-19T10:20:44.213Z,42.06
2023-01-19T10:21:44.125Z,39.46
2023-01-19T10:22:44.069Z,39.29
2023-01-19T10:23:44.015Z,36.69
2023-01-19T10:24:43.977Z,35.07
2023-01-19T10:25:43.961Z,32.79
2023-01-19T10:26:43.852Z,33.12
2023-01-19T10:27:44.714Z,28.25
2023-01-19T10:28:43.680Z,27.25
2023-01-19T10:29:43.589Z,28.58
2023-01-19T10:30:43.764Z,27.36
2023-01-19T10:31:43.435Z,25.00
2023-01-19T10:32:43.317Z,27.01
2023-01-19T10:33:43.241Z,25.00
2023-01-19T10:34:43.286Z,25.04
2023-01-19T10:35:43.096Z,25.61
2023-01-19T10:36:43.012Z,25.48
2023-01-19T10:37:42.930Z,25.00
2023-01-19T10:38:42.888Z,26.83
2023-01-19T10:39:42.782Z,25.63
2023-01-19T10:40:42.766Z,26.98
2023-01-19T10:41:42.659Z,25.59
2023-01-19T10:42:42.621Z,26.53
2023-01-19T10:43:42.506Z,26.09
2023-01-19T10:44:42.453Z,26.56
2023-01-19T10:45:42.396Z,29.05
2023-01-19T10:46:42.319Z,27.78
2023-01-19T10:47:42.317Z,27.02
2023-01-19T10:48:42.293Z,26.26
2023-01-19T10:49:42.122Z,27.94
2023-01-19T10:50:42.152Z,28.07
2023-01-19T10:51:42.046Z,26.07
2023-01-19T10:52:41.990Z,27.71
2023-01-19T10:53:41.879Z,26.94
2023-01-19T10:54:42.298Z,26.67
2023-01-19T10:55:41.753Z,26.15
2023-01-19T10:56:41.697Z,28.60
2023-01-19T10:57:41.693Z,26.85
2023-01-19T10:58:41.607Z,28.58
2023-01-19T10:59:41.765Z,28.72
2023-01-19T11:00:41.530Z,28.66
2023-01-19T11:01:41.560Z,27.79
2023-01-19T11:02:41.482Z,26.50
2023-01-19T11:03:41.318Z,26.43
2023-01-19T11:04:41.334Z,30.62
2023-01-19T11:05:41.208Z,27.14
2023-01-19T11:06:41.157Z,27.45
2023-01-19T11:07:41.139Z,25.82
2023-01-19T11:08:41.050Z,27.60
2023-01-19T11:09:40.981Z,32.81
2023-01-19T11:10:40.911Z,28.05
2023-01-19T11:11:40.857Z,30.28
2023-01-19T11:12:40.793Z,32.21
2023-01-19T11:13:40.776Z,30.15
2023-01-19T11:14:40.687Z,27.53
2023-01-19T11:15:40.628Z,29.09
2023-01-19T11:16:40.600Z,33.70
2023-01-19T11:17:40.512Z,38.76
2023-01-19T11:18:40.479Z,40.92
2023-01-19T11:19:40.403Z,44.97
2023-01-19T11:20:40.345Z,43.13
2023-01-19T11:21:40.299Z,40.74
2023-01-19T11:22:40.235Z,43.02
2023-01-19T11:23:40.173Z,44.28
2023-01-19T11:24:40.120Z,42.26
2023-01-19T11:25:40.053Z,41.32
2023-01-19T11:26:40.023Z,41.39
2023-01-19T11:27:39.976Z,41.65
2023-01-19T11:28:39.980Z,42.78
2023-01-19T11:29:39.897Z,41.08
2023-01-19T11:30:39.934Z,41.27
2023-01-19T11:31:39.822Z,40.62
2023-01-19T11:32:39.714Z,39.53
2023-01-19T11:33:39.679Z,39.80
2023-01-19T11:34:39.614Z,39.43
2023-01-19T11:35:39.601Z,41.27
2023-01-19T11:36:39.528Z,39.53
2023-01-19T11:37:39.462Z,40.06
2023-01-19T11:38:39.416Z,38.58
2023-01-19T11:39:39.371Z,38.51
2023-01-19T11:40:39.327Z,39.86
2023-01-19T11:41:39.282Z,37.49
2023-01-19T11:42:39.233Z,38.37
2023-01-19T11:43:48.751Z,38.35
2023-01-19T11:44:40.095Z,38.47
2023-01-19T11:45:39.025Z,38.44
2023-01-19T11:46:38.907Z,35.41
2023-01-19T11:47:38.802Z,35.35
2023-01-19T11:48:38.711Z,36.19
2023-01-19T11:49:39.255Z,35.99
2023-01-19T11:50:38.528Z,36.08
2023-01-19T11:51:38.450Z,33.40
2023-01-19T11:52:38.330Z,36.81
2023-01-19T11:53:38.745Z,30.96
2023-01-19T11:54:39.133Z,31.25
2023-01-19T11:55:38.220Z,31.53
2023-01-19T11:56:38.053Z,32.52
2023-01-19T11:57:37.936Z,32.19
2023-01-19T11:58:37.873Z,32.90
2023-01-19T11:59:37.813Z,32.04
2023-01-19T12:00:37.753Z,33.80
2023-01-19T12:01:37.734Z,33.13
2023-01-19T12:02:37.644Z,32.88
2023-01-19T12:03:37.635Z,32.33
2023-01-19T12:04:37.557Z,30.36
2023-01-19T12:05:37.500Z,30.20
2023-01-19T12:06:37.443Z,30.77
2023-01-19T12:07:37.485Z,30.06
2023-01-19T12:08:37.353Z,30.29
2023-01-19T12:09:37.284Z,28.16
2023-01-19T12:10:37.238Z,29.63
2023-01-19T12:11:37.197Z,27.23
2023-01-19T12:12:37.199Z,30.52
2023-01-19T12:13:37.079Z,29.17
2023-01-19T12:14:37.039Z,29.60
2023-01-19T12:15:36.990Z,30.56
2023-01-19T12:16:36.953Z,26.26
2023-01-19T12:17:36.900Z,26.01
2023-01-19T12:18:36.861Z,27.00
2023-01-19T12:19:36.803Z,28.50
2023-01-19T12:20:36.753Z,26.87
2023-01-19T12:21:36.785Z,27.86
2023-01-19T12:22:36.665Z,26.32
2023-01-19T12:23:36.614Z,26.65
2023-01-19T12:24:36.653Z,27.06
2023-01-19T12:25:36.528Z,25.53
2023-01-19T12:26:37.332Z,30.18
2023-01-19T12:27:36.446Z,26.97
2023-01-19T12:28:36.394Z,26.89
2023-01-19T12:29:36.348Z,28.76
2023-01-19T12:30:36.436Z,25.53
2023-01-19T12:31:36.340Z,26.94
2023-01-19T12:32:36.228Z,26.28
2023-01-19T12:33:36.184Z,25.66
2023-01-19T12:34:36.219Z,25.00
2023-01-19T12:35:36.088Z,27.90
2023-01-19T12:36:36.052Z,28.68
2023-01-19T12:37:36.029Z,28.65
2023-01-19T12:38:35.987Z,28.02
2023-01-19T12:39:35.984Z,27.66
2023-01-19T12:40:35.894Z,28.36
2023-01-19T12:41:35.859Z,26.51
2023-01-19T12:42:35.828Z,27.00
2023-01-19T12:43:35.788Z,25.62
2023-01-19T12:44:35.744Z,27.65
2023-01-19T12:45:35.710Z,25.00
2023-01-19T12:46:35.662Z,27.34
2023-01-19T12:47:35.638Z,26.20
2023-01-19T12:48:35.604Z,27.86
2023-01-19T12:49:35.574Z,27.19
2023-01-19T12:50:35.540Z,26.61
2023-01-19T13:17:34.466Z,38.17
2023-01-19T13:18:34.318Z,41.76
2023-01-19T13:19:34.243Z,43.29
2023-01-19T13:20:34.160Z,45.32
2023-01-19T13:21:34.084Z,43.62
2023-01-19T13:22:33.994Z,43.12
2023-01-19T13:23:33.899Z,43.70
2023-01-19T13:24:33.816Z,45.34
2023-01-19T13:26:33.622Z,49.32
2023-01-19T13:28:33.511Z,48.23
2023-01-19T13:29:33.343Z,51.16
2023-01-19T13:30:33.243Z,50.81
2023-01-19T13:31:33.202Z,52.96
2023-01-19T13:32:33.070Z,52.20
2023-01-19T13:33:32.961Z,51.84
2023-01-19T13:34:32.861Z,52.89
2023-01-19T13:35:32.755Z,53.62
2023-01-19T13:36:32.663Z,43.36
2023-01-19T13:37:33.208Z,37.25
2023-01-19T13:38:32.465Z,37.90
2023-01-19T13:39:32.384Z,37.96
2023-01-19T13:41:32.227Z,38.68
2023-01-19T13:42:32.137Z,37.86
2023-01-19T13:43:32.047Z,37.91
2023-01-19T13:44:31.931Z,39.82
2023-01-19T13:45:31.841Z,42.79
2023-01-19T13:46:31.805Z,36.40
2023-01-19T13:47:31.634Z,37.44
2023-01-19T13:48:31.529Z,38.12
2023-01-19T13:49:31.452Z,36.95
2023-01-19T13:50:31.373Z,37.31
2023-01-19T13:51:31.322Z,40.59
2023-01-19T13:52:31.489Z,36.74
2023-01-19T13:53:31.221Z,38.69
2023-01-19T13:54:31.180Z,34.98
2023-01-19T13:55:31.179Z,38.47
2023-01-19T13:56:31.009Z,34.52
2023-01-19T13:57:30.922Z,34.29
2023-01-19T13:58:30.811Z,29.33
2023-01-19T13:59:30.798Z,28.10
2023-01-19T14:00:30.624Z,32.23
2023-01-19T14:01:30.667Z,28.56
2023-01-19T14:02:30.682Z,28.70
2023-01-19T14:03:30.388Z,30.68
2023-01-19T14:04:30.294Z,28.74
2023-01-19T14:05:30.181Z,27.70
2023-01-19T14:06:30.116Z,28.82
2023-01-19T14:07:30.098Z,27.43
2023-01-19T14:08:30.019Z,27.13
2023-01-19T14:09:29.937Z,26.55
2023-01-19T14:10:29.872Z,26.10
2023-01-19T14:11:29.841Z,27.47
2023-01-19T14:12:29.797Z,28.67
2023-01-19T14:13:29.814Z,25.65
2023-01-19T14:14:29.614Z,25.88
2023-01-19T14:15:29.545Z,28.35
2023-01-19T14:16:29.544Z,26.12
2023-01-19T14:17:29.419Z,27.97
2023-01-19T14:18:29.347Z,27.57
2023-01-19T14:19:29.369Z,25.84
2023-01-19T14:20:29.283Z,25.68
2023-01-19T14:21:29.206Z,25.70
2023-01-19T14:22:29.127Z,26.66
2023-01-19T14:23:29.056Z,27.20
2023-01-19T14:24:29.003Z,25.40
2023-01-19T14:25:28.963Z,27.16
2023-01-19T14:26:28.861Z,26.48
2023-01-19T14:27:28.817Z,28.51
2023-01-19T14:28:28.753Z,28.39
2023-01-19T14:29:28.968Z,25.86
2023-01-19T14:30:28.646Z,26.06
2023-01-19T14:31:28.625Z,25.70
2023-01-19T14:32:28.557Z,25.00
2023-01-19T14:33:28.428Z,26.32
2023-01-19T14:34:28.359Z,26.95
2023-01-19T14:35:28.405Z,27.19
2023-01-19T14:36:28.228Z,26.16
2023-01-19T14:37:28.171Z,27.12
2023-01-19T14:38:28.124Z,28.19
2023-01-19T14:39:28.074Z,26.41
2023-01-19T14:40:27.989Z,26.17
2023-01-19T14:41:27.929Z,25.34
2023-01-19T14:42:27.933Z,26.30
2023-01-19T14:43:27.832Z,25.51
2023-01-19T14:44:27.759Z,28.12
2023-01-19T14:45:27.735Z,26.13
2023-01-19T14:46:27.736Z,25.39
2023-01-19T14:47:27.663Z,27.08
2023-01-19T14:48:27.573Z,28.51
2023-01-19T14:49:27.495Z,25.18
2023-01-19T14:50:27.404Z,25.66
2023-01-19T14:51:27.341Z,25.20
2023-01-19T14:52:27.226Z,28.83
2023-01-19T14:53:27.225Z,27.89
2023-01-19T14:54:26.996Z,25.00
2023-01-19T14:55:26.880Z,26.74
2023-01-19T14:56:26.784Z,29.18
2023-01-19T14:57:26.681Z,26.25
2023-01-19T14:58:26.593Z,25.00
2023-01-19T14:59:26.517Z,25.67
2023-01-19T15:00:26.400Z,25.30
2023-01-19T15:01:26.394Z,26.70
2023-01-19T15:02:26.283Z,25.09
2023-01-19T15:03:35.048Z,25.00
2023-01-19T15:04:27.085Z,25.16
2023-01-19T15:05:25.925Z,25.00
2023-01-19T15:06:25.814Z,23.25
2023-01-19T15:07:25.707Z,22.43
2023-01-19T15:08:25.623Z,27.86
2023-01-19T15:09:25.516Z,26.49
2023-01-19T16:09:22.832Z,26.49
2023-01-19T16:10:22.795Z,25.94
2023-01-19T16:11:22.759Z,27.74
2023-01-19T16:12:22.751Z,25.00
2023-01-19T16:13:22.693Z,27.04
2023-01-19T16:14:22.640Z,27.59
2023-01-19T16:15:22.675Z,27.20
2023-01-19T16:16:22.605Z,25.61
2023-01-19T16:17:22.548Z,26.01
2023-01-19T16:18:22.595Z,25.00
2023-01-19T16:19:22.479Z,28.50
2023-01-19T16:20:22.433Z,27.59
2023-01-19T16:21:22.403Z,25.59
2023-01-19T16:22:22.373Z,25.77
2023-01-19T16:23:22.317Z,28.57
2023-01-19T16:24:22.285Z,27.04
2023-01-19T16:25:22.235Z,25.32
2023-01-19T16:26:22.201Z,26.25
2023-01-19T16:27:22.160Z,26.27
2023-01-19T16:28:22.129Z,27.02
2023-01-19T16:29:22.132Z,28.23
2023-01-19T16:30:22.109Z,24.79
2023-01-19T16:31:22.134Z,27.28
2023-01-19T16:32:21.974Z,26.14
2023-01-19T16:33:21.928Z,27.91
2023-01-19T16:34:21.900Z,28.04
2023-01-19T16:35:21.850Z,27.92
2023-01-19T16:36:21.848Z,25.76
2023-01-19T16:37:21.799Z,27.53
2023-01-19T16:38:21.783Z,27.32
2023-01-19T16:39:21.720Z,26.12
2023-01-19T16:40:21.684Z,26.13
2023-01-19T16:41:21.653Z,25.89
2023-01-19T16:42:21.622Z,27.05
2023-01-19T16:43:21.607Z,25.27
2023-01-19T16:44:21.571Z,26.35
2023-01-19T16:45:21.536Z,27.09
2023-01-19T16:46:21.516Z,28.32
2023-01-19T16:47:21.465Z,25.95
2023-01-19T16:48:22.359Z,25.41
2023-01-19T16:49:21.423Z,25.54
2023-01-19T16:50:21.375Z,27.56
2023-01-19T16:51:21.341Z,26.81
2023-01-19T16:52:21.303Z,28.70
2023-01-19T16:53:21.283Z,25.23
2023-01-19T16:54:21.238Z,26.84
2023-01-19T16:55:21.183Z,25.95
2023-01-19T16:56:21.172Z,25.28
2023-01-19T16:57:21.132Z,26.80
2023-01-19T16:58:21.076Z,27.33
2023-01-19T16:59:21.028Z,26.68
2023-01-19T17:00:20.989Z,26.49
2023-01-19T17:01:20.996Z,26.45
2023-01-19T17:02:20.938Z,27.13
2023-01-19T17:03:20.828Z,28.78
2023-01-19T17:04:20.769Z,26.51
2023-01-19T17:05:20.696Z,25.32
2023-01-19T17:06:20.631Z,25.48
2023-01-19T17:07:20.593Z,26.80
2023-01-19T17:08:20.521Z,26.97
2023-01-19T17:09:20.543Z,25.00
2023-01-19T17:10:21.378Z,25.37
2023-01-19T17:11:20.314Z,26.69
2023-01-19T17:12:20.238Z,27.61
2023-01-19T17:13:20.870Z,25.40
2023-01-19T17:14:20.146Z,26.64
2023-01-19T17:15:20.101Z,26.17
2023-01-19T17:16:20.098Z,25.57
2023-01-19T17:17:20.021Z,25.40
2023-01-19T17:18:20.029Z,26.90
2023-01-19T17:19:19.914Z,25.98
2023-01-19T17:20:19.941Z,25.70
2023-01-19T17:21:19.834Z,26.08
2023-01-19T17:22:19.754Z,25.21
2023-01-19T17:23:19.681Z,25.76
2023-01-19T17:24:19.614Z,25.07
2023-01-19T17:25:19.581Z,27.22
2023-01-19T17:26:19.514Z,27.19
2023-01-19T17:27:19.445Z,27.40
2023-01-19T17:28:19.415Z,25.39
2023-01-19T17:29:19.324Z,29.46
2023-01-19T17:30:19.260Z,26.56
2023-01-19T17:31:20.085Z,27.05
2023-01-19T17:32:19.075Z,28.43
2023-01-19T17:33:18.990Z,27.75
2023-01-19T17:34:18.894Z,28.09
2023-01-19T17:35:18.888Z,26.93
2023-01-19T17:36:18.731Z,25.43
2023-01-19T17:37:18.689Z,27.06
2023-01-19T17:38:18.607Z,26.20
2023-01-19T17:39:18.624Z,27.84
2023-01-19T17:40:18.517Z,25.89
2023-01-19T17:41:18.425Z,25.78
2023-01-19T17:42:18.348Z,27.99
2023-01-19T17:43:18.265Z,25.15
2023-01-19T17:44:18.182Z,25.51
2023-01-19T17:45:18.105Z,26.05
2023-01-19T17:46:18.058Z,27.18
2023-01-19T17:47:17.990Z,26.95
2023-01-19T17:48:17.922Z,26.80
2023-01-19T17:49:17.893Z,26.90
2023-01-19T17:50:17.839Z,25.89
2023-01-19T17:51:17.732Z,28.62
2023-01-19T17:52:17.971Z,28.28
2023-01-19T17:53:17.624Z,28.45
2023-01-19T17:54:17.539Z,25.33
2023-01-19T18:13:15.974Z,25.30
2023-01-19T18:14:15.884Z,27.02
2023-01-19T18:15:16.974Z,26.43
2023-01-19T18:16:15.698Z,27.49
2023-01-19T18:17:15.636Z,26.10
2023-01-19T18:18:15.555Z,25.59
2023-01-19T19:58:07.908Z,29.06